Time;durP1;ratioP1;P1;durP2;ratioP2;P2;SDS_P1;SDS_P2;PMS_P1;PMS_P2;Temp;Humidity;BMP_temperature;BMP_pressure;BME280_temperature;BME280_humidity;BME280_pressure;Samples;Min_cycle;Max_cycle;Signal;HPM_P1;HPM_P2
2023/07/25 00:01:01;;;;;;;8.48;5.43;;;12.30;99.90;;;;;;7374802;19;20014;-59
2023/07/25 00:03:27;;;;;;;9.68;5.40;;;12.30;99.90;;;;;;7375868;19;20038;-57
2023/07/25 00:05:54;;;;;;;11.00;5.40;;;12.40;99.90;;;;;;7379203;19;20024;-64
2023/07/25 00:08:21;;;;;;;12.20;6.28;;;12.40;99.90;;;;;;7376689;19;20096;-64
2023/07/25 00:10:47;;;;;;;8.00;5.50;;;12.40;99.90;;;;;;7377817;19;20624;-57
2023/07/25 00:13:14;;;;;;;9.70;6.05;;;12.40;99.90;;;;;;7375269;19;20015;-65
2023/07/25 00:15:40;;;;;;;10.32;5.63;;;12.40;99.90;;;;;;7381718;19;20393;-64
2023/07/25 00:18:06;;;;;;;12.18;5.88;;;12.40;99.90;;;;;;7381423;19;20018;-64
2023/07/25 00:20:32;;;;;;;10.10;5.75;;;12.50;99.90;;;;;;7384749;19;20028;-64
2023/07/25 00:23:01;;;;;;;11.98;5.60;;;12.40;99.90;;;;;;7384274;19;20484;-64
2023/07/25 00:25:28;;;;;;;12.18;6.28;;;12.40;99.90;;;;;;7383968;19;20033;-63
2023/07/25 00:27:54;;;;;;;8.80;5.45;;;12.40;99.90;;;;;;7386039;19;20046;-64
2023/07/25 00:30:20;;;;;;;7.82;5.05;;;12.40;99.90;;;;;;7383075;19;20098;-64
2023/07/25 00:32:47;;;;;;;10.27;5.65;;;12.30;99.90;;;;;;7381295;19;20541;-64
2023/07/25 00:35:13;;;;;;;10.90;5.15;;;12.30;99.90;;;;;;7380194;19;20019;-58
2023/07/25 00:37:39;;;;;;;11.05;5.53;;;12.30;99.90;;;;;;7375882;19;20478;-57
2023/07/25 00:40:06;;;;;;;13.27;5.63;;;12.30;99.90;;;;;;7373753;19;20097;-57
2023/07/25 00:42:33;;;;;;;11.30;5.47;;;12.20;99.90;;;;;;7369505;19;20466;-57
2023/07/25 00:45:02;;;;;;;10.98;5.57;;;12.20;99.90;;;;;;7377538;19;20021;-64
2023/07/25 00:47:28;;;;;;;9.32;5.80;;;12.10;99.90;;;;;;7377143;19;20022;-64
2023/07/25 00:49:55;;;;;;;10.95;5.50;;;12.10;99.90;;;;;;7380255;19;20023;-57
2023/07/25 00:52:21;;;;;;;8.25;5.07;;;12.10;99.90;;;;;;7369377;19;20022;-57
2023/07/25 00:54:49;;;;;;;9.65;5.10;;;12.00;99.90;;;;;;7376760;19;20023;-57
2023/07/25 00:57:17;;;;;;;14.57;5.75;;;12.00;99.90;;;;;;7369561;19;20628;-57
2023/07/25 00:59:44;;;;;;;11.05;5.35;;;11.90;99.90;;;;;;7375965;19;20044;-63
2023/07/25 01:02:12;;;;;;;9.50;5.35;;;11.80;99.90;;;;;;7371730;19;20019;-57
2023/07/25 01:04:39;;;;;;;11.27;5.50;;;11.70;99.90;;;;;;7375974;19;20698;-63
2023/07/25 01:07:06;;;;;;;10.60;4.90;;;11.70;99.90;;;;;;7374401;19;20444;-64
2023/07/25 01:09:39;;;;;;;13.63;5.57;;;11.60;99.90;;;;;;7377072;19;20022;-57
2023/07/25 01:12:07;;;;;;;9.52;5.63;;;11.50;99.90;;;;;;7369522;19;20030;-57
2023/07/25 01:14:34;;;;;;;10.32;6.20;;;11.50;99.90;;;;;;7368407;19;20018;-57
2023/07/25 01:17:15;;;;;;;14.30;6.43;;;11.50;99.90;;;;;;7378949;19;20018;-64
2023/07/25 01:19:44;;;;;;;13.52;7.07;;;11.50;99.90;;;;;;7381652;19;20022;-64
2023/07/25 01:22:11;;;;;;;8.90;5.93;;;11.50;99.90;;;;;;7360418;19;20585;-57
2023/07/25 01:24:42;;;;;;;12.23;6.68;;;11.50;99.90;;;;;;7368278;19;20019;-58
2023/07/25 01:27:08;;;;;;;12.52;6.50;;;11.40;99.90;;;;;;7372459;19;20082;-58
2023/07/25 01:29:35;;;;;;;12.77;6.10;;;11.40;99.90;;;;;;7368953;19;20011;-63
2023/07/25 01:32:01;;;;;;;13.88;7.13;;;11.40;99.90;;;;;;7376231;19;20022;-58
2023/07/25 01:34:27;;;;;;;14.38;6.65;;;11.40;99.90;;;;;;7383384;19;20051;-64
2023/07/25 01:36:54;;;;;;;11.82;6.50;;;11.30;99.90;;;;;;7380138;19;20026;-64
2023/07/25 01:39:21;;;;;;;9.60;5.82;;;11.30;99.90;;;;;;7381240;19;20028;-63
2023/07/25 01:41:47;;;;;;;12.38;5.85;;;11.40;99.90;;;;;;7380808;19;20029;-63
2023/07/25 01:44:14;;;;;;;9.80;6.15;;;11.40;99.90;;;;;;7380109;19;20018;-63
2023/07/25 01:46:41;;;;;;;10.63;6.22;;;11.30;99.90;;;;;;7377178;19;20466;-63
2023/07/25 01:49:13;;;;;;;12.30;6.88;;;11.30;99.90;;;;;;7379484;19;20403;-64
2023/07/25 01:51:40;;;;;;;13.57;7.65;;;11.30;99.90;;;;;;7380415;19;20018;-64
2023/07/25 01:54:07;;;;;;;10.55;6.55;;;11.30;99.90;;;;;;7376704;19;20022;-63
2023/07/25 01:56:33;;;;;;;13.18;6.55;;;11.30;99.90;;;;;;7379052;19;21692;-64
2023/07/25 01:59:00;;;;;;;16.80;6.93;;;11.30;99.90;;;;;;7380714;19;20028;-64
2023/07/25 02:01:26;;;;;;;10.73;6.53;;;11.30;99.90;;;;;;7372349;19;20662;-57
2023/07/25 02:03:55;;;;;;;13.10;7.10;;;11.30;99.90;;;;;;7363144;19;20043;-58
2023/07/25 02:06:22;;;;;;;9.45;6.53;;;11.30;99.90;;;;;;7360636;19;20071;-61
2023/07/25 02:08:48;;;;;;;16.30;7.70;;;11.30;99.90;;;;;;7372318;19;20029;-63
2023/07/25 02:11:15;;;;;;;12.15;6.63;;;11.30;99.90;;;;;;7369551;19;20026;-58
2023/07/25 02:13:41;;;;;;;9.57;6.45;;;11.40;99.90;;;;;;7374643;19;20749;-57
2023/07/25 02:16:08;;;;;;;10.48;6.13;;;11.40;99.90;;;;;;7372278;19;20098;-64
2023/07/25 02:18:34;;;;;;;12.45;6.20;;;11.40;99.90;;;;;;7372637;19;20050;-56
2023/07/25 02:21:00;;;;;;;10.85;6.18;;;11.40;99.90;;;;;;7370944;19;20014;-63
2023/07/25 02:23:27;;;;;;;11.10;6.30;;;11.50;99.90;;;;;;7375941;19;20024;-63
2023/07/25 02:25:53;;;;;;;15.52;6.25;;;11.40;99.90;;;;;;7366940;19;20041;-56
2023/07/25 02:28:19;;;;;;;14.25;6.63;;;11.40;99.90;;;;;;7369400;19;20026;-57
2023/07/25 02:30:46;;;;;;;9.95;6.15;;;11.40;99.90;;;;;;7373225;19;20026;-58
2023/07/25 02:33:13;;;;;;;13.95;6.63;;;11.40;99.90;;;;;;7372454;19;20101;-57
2023/07/25 02:35:40;;;;;;;10.25;6.40;;;11.40;99.90;;;;;;7376433;19;20029;-57
2023/07/25 02:38:06;;;;;;;13.65;7.18;;;11.40;99.90;;;;;;7380383;19;20019;-64
2023/07/25 02:40:33;;;;;;;10.27;6.68;;;11.40;99.90;;;;;;7383950;19;20025;-57
2023/07/25 02:43:06;;;;;;;11.45;6.70;;;11.40;99.90;;;;;;7374300;19;20019;-58
2023/07/25 02:45:32;;;;;;;11.35;6.65;;;11.40;99.90;;;;;;7374138;19;20029;-57
2023/07/25 02:47:58;;;;;;;11.30;6.68;;;11.40;99.90;;;;;;7383439;19;20023;-64
2023/07/25 02:50:25;;;;;;;13.45;6.70;;;11.40;99.90;;;;;;7383662;19;20018;-63
2023/07/25 02:52:51;;;;;;;10.63;7.25;;;11.50;99.90;;;;;;7378257;19;20121;-64
2023/07/25 02:55:18;;;;;;;13.32;6.97;;;11.50;99.90;;;;;;7381569;19;20018;-64
2023/07/25 02:57:44;;;;;;;14.27;7.07;;;11.50;99.90;;;;;;7375920;19;20019;-57
2023/07/25 03:00:11;;;;;;;13.48;7.05;;;11.50;99.90;;;;;;7371282;19;20565;-57
2023/07/25 03:02:37;;;;;;;16.42;6.63;;;11.60;99.90;;;;;;7372084;19;20037;-57
2023/07/25 03:05:04;;;;;;;12.23;6.60;;;11.60;99.90;;;;;;7371719;19;20029;-58
2023/07/25 03:07:30;;;;;;;12.07;7.20;;;11.60;99.90;;;;;;7372551;19;20074;-58
2023/07/25 03:09:56;;;;;;;11.82;6.15;;;11.60;99.90;;;;;;7373127;19;20048;-57
2023/07/25 03:12:24;;;;;;;13.30;6.65;;;11.50;99.90;;;;;;7370018;19;20105;-57
2023/07/25 03:14:50;;;;;;;13.98;6.47;;;11.50;99.90;;;;;;7378439;19;20045;-63
2023/07/25 03:17:17;;;;;;;12.30;6.97;;;11.50;99.90;;;;;;7381280;19;20015;-63
2023/07/25 03:19:43;;;;;;;12.98;6.65;;;11.40;99.90;;;;;;7372077;19;20086;-56
2023/07/25 03:22:09;;;;;;;11.45;6.47;;;11.40;99.90;;;;;;7382264;19;20482;-63
2023/07/25 03:24:35;;;;;;;8.65;6.05;;;11.40;99.90;;;;;;7375009;19;20033;-56
2023/07/25 03:27:02;;;;;;;13.27;6.13;;;11.30;99.90;;;;;;7375048;19;20014;-63
2023/07/25 03:29:28;;;;;;;13.15;6.75;;;11.30;99.90;;;;;;7380438;19;20014;-63
2023/07/25 03:31:54;;;;;;;9.13;5.68;;;11.30;99.90;;;;;;7382156;19;20029;-63
2023/07/25 03:34:21;;;;;;;13.13;6.63;;;11.30;99.90;;;;;;7378713;19;20026;-56
2023/07/25 03:36:47;;;;;;;14.90;6.45;;;11.30;99.90;;;;;;7371413;19;20042;-56
2023/07/25 03:39:13;;;;;;;11.45;6.30;;;11.30;99.90;;;;;;7370511;19;20355;-56
2023/07/25 03:41:39;;;;;;;14.95;5.95;;;11.30;99.90;;;;;;7374449;19;20022;-63
2023/07/25 03:44:06;;;;;;;11.43;6.78;;;11.40;99.90;;;;;;7379189;19;20025;-63
2023/07/25 03:46:32;;;;;;;17.20;7.35;;;11.50;99.90;;;;;;7381010;19;20453;-63
2023/07/25 03:48:59;;;;;;;13.93;6.70;;;11.60;99.90;;;;;;7376485;19;20019;-62
2023/07/25 03:51:26;;;;;;;11.60;6.55;;;11.70;99.90;;;;;;7380713;19;20026;-57
2023/07/25 03:53:52;;;;;;;12.88;7.43;;;11.70;99.90;;;;;;7368559;19;20035;-57
2023/07/25 03:56:18;;;;;;;13.52;6.93;;;11.80;99.90;;;;;;7372208;19;20034;-56
2023/07/25 03:58:44;;;;;;;12.85;6.40;;;11.90;99.90;;;;;;7370770;19;20022;-57
2023/07/25 04:01:10;;;;;;;9.80;6.45;;;11.90;99.90;;;;;;7371812;19;20029;-57
2023/07/25 04:03:37;;;;;;;16.50;6.50;;;12.00;99.90;;;;;;7371356;19;20021;-57
2023/07/25 04:06:03;;;;;;;12.68;6.50;;;12.00;99.90;;;;;;7367816;19;20641;-57
2023/07/25 04:08:30;;;;;;;11.93;6.38;;;12.10;99.90;;;;;;7377351;19;20015;-63
2023/07/25 04:10:56;;;;;;;15.25;7.50;;;12.10;99.90;;;;;;7369797;19;20023;-58
2023/07/25 04:13:23;;;;;;;13.13;6.13;;;12.10;99.90;;;;;;7368824;19;20435;-57
2023/07/25 04:15:49;;;;;;;15.20;6.88;;;12.20;99.90;;;;;;7372283;19;20592;-58
2023/07/25 04:18:15;;;;;;;17.60;6.78;;;12.20;99.90;;;;;;7376506;19;20028;-64
2023/07/25 04:20:42;;;;;;;11.27;6.57;;;12.30;99.90;;;;;;7377966;19;20018;-64
2023/07/25 04:23:08;;;;;;;14.02;6.97;;;12.30;99.90;;;;;;7377100;19;20018;-64
2023/07/25 04:25:34;;;;;;;12.68;7.55;;;12.40;99.90;;;;;;7378748;19;20059;-64
2023/07/25 04:28:01;;;;;;;12.75;6.28;;;12.40;99.90;;;;;;7381565;19;20078;-65
2023/07/25 04:30:28;;;;;;;15.27;5.93;;;12.40;99.90;;;;;;7379581;19;20492;-65
2023/07/25 04:32:54;;;;;;;11.90;5.93;;;12.40;99.90;;;;;;7377626;19;20041;-58
2023/07/25 04:35:20;;;;;;;11.73;6.60;;;12.50;99.90;;;;;;7367286;19;20876;-58
2023/07/25 04:37:46;;;;;;;15.15;5.95;;;12.50;99.90;;;;;;7373842;19;20021;-57
2023/07/25 04:40:13;;;;;;;14.23;6.95;;;12.60;99.90;;;;;;7374431;19;20022;-57
2023/07/25 04:42:40;;;;;;;12.32;5.82;;;12.60;99.90;;;;;;7374219;19;20472;-64
2023/07/25 04:45:07;;;;;;;10.10;5.97;;;12.70;99.90;;;;;;7373638;19;20019;-65
2023/07/25 04:47:33;;;;;;;15.30;6.45;;;12.70;99.90;;;;;;7377875;19;20014;-63
2023/07/25 04:50:00;;;;;;;12.63;7.25;;;12.80;99.90;;;;;;7380547;19;20395;-65
2023/07/25 04:52:26;;;;;;;16.27;6.53;;;12.90;99.90;;;;;;7372110;19;20038;-64
2023/07/25 04:54:57;;;;;;;12.27;5.45;;;12.90;99.90;;;;;;7372050;19;20045;-57
2023/07/25 04:57:24;;;;;;;9.48;5.20;;;13.00;99.90;;;;;;7370125;19;20475;-57
2023/07/25 04:59:51;;;;;;;10.10;5.63;;;13.10;99.90;;;;;;7367470;19;20026;-57
2023/07/25 05:02:21;;;;;;;10.10;5.18;;;13.20;99.90;;;;;;7375133;19;20018;-57
2023/07/25 05:04:47;;;;;;;10.23;4.97;;;13.30;99.90;;;;;;7369307;19;20025;-57
2023/07/25 05:07:14;;;;;;;11.82;4.93;;;13.40;99.90;;;;;;7380695;19;20049;-63
2023/07/25 05:09:41;;;;;;;13.15;4.82;;;13.50;99.90;;;;;;7374702;19;20367;-63
2023/07/25 05:12:11;;;;;;;11.48;4.68;;;13.50;99.90;;;;;;7374581;19;20019;-63
2023/07/25 05:14:39;;;;;;;11.35;4.38;;;13.60;99.90;;;;;;7369997;19;20752;-57
2023/07/25 05:17:06;;;;;;;11.98;4.32;;;13.80;99.90;;;;;;7368808;19;20022;-57
2023/07/25 05:19:32;;;;;;;11.05;3.47;;;14.10;99.90;;;;;;7375844;19;20497;-64
2023/07/25 05:22:00;;;;;;;10.55;4.03;;;14.20;99.90;;;;;;7372424;19;20033;-63
2023/07/25 05:24:26;;;;;;;9.32;4.22;;;14.40;99.90;;;;;;7377276;19;20036;-63
2023/07/25 05:26:52;;;;;;;8.25;3.13;;;14.40;99.90;;;;;;7380096;19;20425;-63
2023/07/25 05:29:18;;;;;;;9.02;3.53;;;14.50;99.90;;;;;;7380627;19;20631;-62
2023/07/25 05:31:45;;;;;;;9.82;3.22;;;14.60;99.90;;;;;;7380352;19;20039;-63
2023/07/25 05:34:11;;;;;;;10.00;3.08;;;14.80;99.90;;;;;;7372956;19;20740;-67
2023/07/25 05:36:37;;;;;;;10.93;2.90;;;14.90;99.90;;;;;;7377710;19;20018;-63
2023/07/25 05:39:03;;;;;;;8.00;2.60;;;15.10;99.90;;;;;;7374337;19;20014;-68
2023/07/25 05:41:32;;;;;;;7.78;2.33;;;15.40;99.90;;;;;;7373406;19;20019;-64
2023/07/25 05:43:58;;;;;;;8.68;2.78;;;15.80;99.90;;;;;;7367566;19;20366;-57
2023/07/25 05:46:27;;;;;;;8.05;3.10;;;16.00;99.90;;;;;;7371340;19;21060;-57
2023/07/25 05:48:54;;;;;;;10.02;2.50;;;16.20;99.90;;;;;;7369121;19;20010;-57
2023/07/25 05:51:20;;;;;;;11.00;2.47;;;16.40;99.90;;;;;;7370777;19;20035;-58
2023/07/25 05:53:47;;;;;;;7.85;1.85;;;16.40;99.90;;;;;;7366966;19;20026;-57
2023/07/25 05:56:13;;;;;;;8.48;2.30;;;16.50;99.90;;;;;;7369511;19;20047;-56
2023/07/25 05:58:40;;;;;;;7.47;2.33;;;16.60;99.90;;;;;;7368656;19;20018;-56
2023/07/25 06:01:07;;;;;;;9.52;2.05;;;16.80;99.90;;;;;;7371533;19;20038;-57
2023/07/25 06:03:33;;;;;;;8.65;2.15;;;17.00;99.90;;;;;;7373143;19;20035;-57
2023/07/25 06:06:03;;;;;;;7.68;2.17;;;17.10;99.90;;;;;;7379970;19;20488;-56
2023/07/25 06:08:30;;;;;;;6.47;2.10;;;17.30;99.90;;;;;;7378353;19;20021;-58
2023/07/25 06:10:56;;;;;;;10.38;1.92;;;17.30;99.90;;;;;;7378475;19;20070;-57
2023/07/25 06:13:24;;;;;;;6.07;1.85;;;17.30;99.90;;;;;;7377684;19;20554;-57
2023/07/25 06:15:51;;;;;;;7.88;1.85;;;17.20;99.90;;;;;;7378748;19;20017;-64
2023/07/25 06:18:17;;;;;;;7.18;2.00;;;17.50;99.90;;;;;;7377278;19;20094;-61
2023/07/25 06:20:46;;;;;;;6.10;1.83;;;17.40;99.90;;;;;;7378751;19;20837;-57
2023/07/25 06:23:12;;;;;;;7.47;1.65;;;17.50;99.90;;;;;;7379457;19;20045;-57
2023/07/25 06:25:39;;;;;;;8.25;2.10;;;17.40;99.90;;;;;;7378137;19;20415;-57
2023/07/25 06:28:11;;;;;;;6.05;2.00;;;17.40;99.90;;;;;;7382254;19;20572;-63
2023/07/25 06:30:37;;;;;;;6.88;1.63;;;17.30;99.90;;;;;;7380620;19;20454;-66
2023/07/25 06:33:04;;;;;;;9.40;2.00;;;17.20;99.90;;;;;;7382836;19;20462;-63
2023/07/25 06:35:30;;;;;;;8.07;1.73;;;17.30;99.90;;;;;;7377356;19;20545;-62
2023/07/25 06:37:56;;;;;;;6.32;1.83;;;17.30;99.90;;;;;;7381446;19;20031;-64
2023/07/25 06:40:23;;;;;;;7.82;1.77;;;17.40;99.90;;;;;;7383219;19;20025;-57
2023/07/25 06:42:49;;;;;;;5.60;1.40;;;17.40;99.90;;;;;;7380026;19;20045;-62
2023/07/25 06:45:16;;;;;;;10.18;2.08;;;17.60;99.90;;;;;;7378889;19;20014;-63
2023/07/25 06:47:43;;;;;;;5.60;2.08;;;17.50;99.90;;;;;;7378064;19;20025;-63
2023/07/25 06:50:10;;;;;;;9.70;1.55;;;17.60;99.90;;;;;;7380525;19;20078;-63
2023/07/25 06:52:37;;;;;;;8.40;1.38;;;17.60;99.90;;;;;;7380581;19;20035;-57
2023/07/25 06:55:08;;;;;;;9.30;1.60;;;17.80;99.90;;;;;;7377133;19;20585;-57
2023/07/25 06:57:34;;;;;;;6.60;1.50;;;18.00;99.90;;;;;;7379194;19;20744;-58
2023/07/25 07:00:01;;;;;;;4.85;1.38;;;18.00;99.90;;;;;;7377289;19;20014;-57
2023/07/25 07:02:27;;;;;;;4.95;1.45;;;18.10;99.90;;;;;;7373507;19;20394;-57
2023/07/25 07:04:53;;;;;;;5.30;1.30;;;18.30;99.90;;;;;;7375608;19;20029;-62
2023/07/25 07:07:19;;;;;;;4.65;1.42;;;18.20;99.90;;;;;;7380156;19;20732;-56
2023/07/25 07:09:46;;;;;;;9.20;3.78;;;18.30;99.90;;;;;;7381081;19;20105;-62
2023/07/25 07:12:12;;;;;;;3.47;1.42;;;18.50;99.90;;;;;;7378672;19;20425;-63
2023/07/25 07:14:39;;;;;;;5.75;1.35;;;18.60;99.90;;;;;;7381573;19;20033;-64
2023/07/25 07:17:06;;;;;;;6.20;1.52;;;18.80;99.90;;;;;;7381921;19;20010;-65
2023/07/25 07:19:32;;;;;;;6.40;1.10;;;18.90;99.90;;;;;;7384209;19;20014;-64
2023/07/25 07:22:02;;;;;;;5.45;1.40;;;18.90;99.90;;;;;;7384177;19;20026;-65
2023/07/25 07:24:28;;;;;;;6.22;0.90;;;18.70;99.90;;;;;;7381180;19;20014;-64
2023/07/25 07:26:56;;;;;;;6.07;1.00;;;18.60;99.90;;;;;;7381453;19;20022;-65
2023/07/25 07:29:22;;;;;;;5.47;0.98;;;18.70;99.90;;;;;;7377468;19;20023;-58
2023/07/25 07:31:48;;;;;;;6.57;1.30;;;18.80;99.90;;;;;;7376653;19;21282;-63
2023/07/25 07:34:16;;;;;;;4.00;0.95;;;19.20;99.90;;;;;;7372144;19;20014;-58
2023/07/25 07:36:44;;;;;;;4.20;1.00;;;19.20;99.90;;;;;;7373674;19;20042;-58
2023/07/25 07:39:10;;;;;;;3.28;0.80;;;19.50;99.90;;;;;;7372739;19;20036;-58
2023/07/25 07:41:37;;;;;;;5.22;0.70;;;19.50;99.90;;;;;;7375602;19;20018;-58
2023/07/25 07:44:03;;;;;;;8.63;4.40;;;19.80;99.90;;;;;;7373121;19;20023;-57
2023/07/25 07:46:31;;;;;;;5.78;1.27;;;20.00;99.90;;;;;;7374278;19;20015;-58
2023/07/25 07:48:58;;;;;;;5.63;1.02;;;20.10;99.90;;;;;;7377926;19;20081;-57
2023/07/25 07:51:25;;;;;;;5.20;0.98;;;20.10;99.90;;;;;;7375935;19;20667;-58
2023/07/25 07:54:14;;;;;;;3.10;0.70;;;19.90;99.90;;;;;;7380193;19;20018;-65
2023/07/25 07:56:43;;;;;;;3.75;0.60;;;19.90;99.90;;;;;;7377992;19;20021;-59
2023/07/25 07:59:09;;;;;;;4.97;1.00;;;19.70;99.90;;;;;;7374131;19;20014;-58
2023/07/25 08:01:36;;;;;;;5.88;1.00;;;19.80;99.90;;;;;;7376677;19;20049;-57
2023/07/25 08:04:02;;;;;;;2.83;0.88;;;19.60;99.90;;;;;;7376027;19;20019;-64
2023/07/25 08:06:28;;;;;;;3.97;0.88;;;20.00;99.90;;;;;;7380309;19;20019;-64
2023/07/25 08:08:54;;;;;;;4.70;1.00;;;19.70;99.90;;;;;;7373521;19;20027;-58
2023/07/25 08:11:20;;;;;;;3.60;0.63;;;19.70;99.90;;;;;;7376334;19;20019;-57
2023/07/25 08:13:47;;;;;;;3.17;0.60;;;19.30;99.90;;;;;;7372658;19;20046;-58
2023/07/25 08:16:13;;;;;;;5.25;0.70;;;19.60;99.90;;;;;;7374550;19;20098;-58
2023/07/25 08:18:40;;;;;;;6.43;1.20;;;19.90;99.90;;;;;;7372759;19;20105;-58
2023/07/25 08:21:06;;;;;;;3.33;0.70;;;20.00;99.90;;;;;;7376004;19;20015;-58
2023/07/25 08:23:32;;;;;;;3.42;0.70;;;20.40;99.90;;;;;;7371825;19;20024;-58
2023/07/25 08:26:00;;;;;;;6.28;1.08;;;21.10;99.90;;;;;;7371579;19;20415;-58
2023/07/25 08:28:26;;;;;;;3.55;0.90;;;21.60;99.90;;;;;;7375922;19;20011;-64
2023/07/25 08:31:00;;;;;;;7.03;0.88;;;21.40;99.40;;;;;;7379686;19;20053;-64
2023/07/25 08:33:33;;;;;;;3.05;0.95;;;21.10;97.90;;;;;;7375918;19;20022;-65
2023/07/25 08:36:00;;;;;;;4.70;0.90;;;21.20;97.30;;;;;;7377773;19;20441;-64
2023/07/25 08:38:27;;;;;;;6.38;1.00;;;21.60;97.80;;;;;;7375762;19;20018;-65
2023/07/25 08:41:19;;;;;;;3.25;0.65;;;21.70;97.50;;;;;;7378260;19;20014;-65
2023/07/25 08:43:49;;;;;;;4.25;0.63;;;21.10;94.10;;;;;;7380242;19;20651;-65
2023/07/25 08:46:18;;;;;;;4.60;0.80;;;21.30;96.10;;;;;;7377780;19;20018;-65
2023/07/25 08:48:47;;;;;;;5.55;1.23;;;21.90;95.30;;;;;;7377965;19;20014;-65
2023/07/25 08:51:23;;;;;;;5.03;1.13;;;22.00;96.50;;;;;;7381782;19;20030;-64
2023/07/25 08:54:02;;;;;;;4.00;0.85;;;22.60;92.70;;;;;;7377050;19;20473;-64
2023/07/25 08:56:29;;;;;;;3.15;1.25;;;22.50;94.00;;;;;;7376124;19;20035;-64
2023/07/25 08:58:57;;;;;;;4.32;1.38;;;22.20;94.50;;;;;;7379107;19;20486;-63
2023/07/25 09:01:25;;;;;;;4.78;0.95;;;22.10;94.50;;;;;;7376741;19;20029;-56
2023/07/25 09:03:52;;;;;;;5.07;1.17;;;21.80;95.10;;;;;;7374258;19;20064;-56
2023/07/25 09:06:20;;;;;;;7.47;1.00;;;21.20;93.80;;;;;;7373802;19;20776;-56
2023/07/25 09:08:46;;;;;;;4.75;0.60;;;20.90;93.30;;;;;;7372202;19;20097;-63
2023/07/25 09:11:16;;;;;;;4.60;0.80;;;20.80;93.40;;;;;;7377818;19;20015;-64
2023/07/25 09:13:42;;;;;;;5.55;0.65;;;21.20;93.40;;;;;;7377734;19;20015;-64
2023/07/25 09:16:08;;;;;;;3.28;0.68;;;21.90;93.20;;;;;;7379486;19;20018;-64
2023/07/25 09:18:34;;;;;;;6.43;2.97;;;22.30;91.90;;;;;;7376533;19;20019;-64
2023/07/25 09:21:03;;;;;;;5.95;1.73;;;22.70;91.70;;;;;;7377990;19;20481;-65
2023/07/25 09:23:29;;;;;;;4.47;0.80;;;23.40;90.00;;;;;;7379400;19;20015;-65
2023/07/25 09:26:08;;;;;;;3.15;0.60;;;23.60;85.50;;;;;;7372314;19;20019;-58
2023/07/25 09:28:34;;;;;;;5.35;2.05;;;23.60;80.40;;;;;;7370822;19;20031;-57
2023/07/25 09:31:04;;;;;;;4.28;0.70;;;23.20;80.80;;;;;;7374551;19;20010;-57
2023/07/25 09:33:30;;;;;;;4.22;1.08;;;22.60;76.20;;;;;;7367244;19;20029;-57
2023/07/25 09:35:58;;;;;;;6.28;1.02;;;23.20;79.80;;;;;;7368155;19;20018;-57
2023/07/25 09:38:24;;;;;;;3.42;0.80;;;23.30;78.20;;;;;;7370262;19;20014;-57
2023/07/25 09:40:50;;;;;;;4.30;0.65;;;22.60;79.10;;;;;;7372499;19;20074;-57
2023/07/25 09:43:23;;;;;;;4.38;1.02;;;22.30;80.60;;;;;;7370923;19;20018;-57
2023/07/25 09:45:51;;;;;;;1.85;0.60;;;22.30;77.40;;;;;;7371635;19;20030;-57
2023/07/25 09:48:18;;;;;;;2.85;0.73;;;23.20;77.30;;;;;;7369103;19;20022;-57
2023/07/25 09:50:45;;;;;;;4.63;2.50;;;23.60;74.90;;;;;;7372934;19;20019;-56
2023/07/25 09:53:14;;;;;;;3.53;0.90;;;24.40;76.20;;;;;;7369926;19;20018;-57
2023/07/25 09:55:41;;;;;;;5.97;0.80;;;24.10;76.50;;;;;;7372403;19;20018;-57
2023/07/25 09:58:08;;;;;;;5.25;0.70;;;23.60;74.60;;;;;;7368541;19;20026;-57
2023/07/25 10:00:34;;;;;;;3.45;0.82;;;23.40;74.50;;;;;;7372968;19;20018;-57
2023/07/25 10:03:01;;;;;;;4.30;0.60;;;23.20;72.60;;;;;;7369233;19;20023;-58
2023/07/25 10:05:30;;;;;;;2.38;0.85;;;23.70;74.00;;;;;;7375345;19;20035;-64
2023/07/25 10:07:59;;;;;;;7.47;1.42;;;24.20;71.90;;;;;;7374052;19;20127;-57
2023/07/25 10:10:26;;;;;;;2.10;0.50;;;24.40;72.10;;;;;;7376769;19;20022;-57
2023/07/25 10:12:53;;;;;;;3.85;0.90;;;24.80;70.50;;;;;;7377356;19;20053;-64
2023/07/25 10:15:20;;;;;;;4.55;0.60;;;25.40;69.80;;;;;;7380112;19;20393;-65
2023/07/25 10:17:47;;;;;;;3.55;0.95;;;25.90;66.50;;;;;;7379787;19;20082;-57
2023/07/25 10:20:22;;;;;;;2.83;0.68;;;25.90;64.50;;;;;;7375510;19;20018;-64
2023/07/25 10:22:50;;;;;;;2.63;0.77;;;25.10;60.10;;;;;;7377826;19;20090;-66
2023/07/25 10:25:27;;;;;;;3.72;1.20;;;24.20;61.60;;;;;;7373932;19;20070;-64
2023/07/25 10:28:03;;;;;;;1.67;0.50;;;24.10;61.70;;;;;;7375804;19;20583;-62
2023/07/25 10:30:44;;;;;;;3.95;1.15;;;24.10;61.80;;;;;;7376974;19;20362;-57
2023/07/25 10:33:13;;;;;;;8.70;6.15;;;23.90;64.90;;;;;;7374262;19;20018;-56
2023/07/25 10:35:50;;;;;;;5.40;0.98;;;23.70;66.10;;;;;;7375856;19;20018;-57
2023/07/25 10:38:40;;;;;;;3.70;1.00;;;23.60;66.40;;;;;;7368068;19;20010;-56
2023/07/25 10:41:08;;;;;;;4.22;0.88;;;23.10;64.70;;;;;;7372541;19;20019;-57
2023/07/25 10:43:48;;;;;;;5.22;1.33;;;22.90;67.20;;;;;;7369993;19;20022;-63
2023/07/25 10:46:19;;;;;;;7.75;2.67;;;23.30;68.40;;;;;;7370952;19;20404;-57
2023/07/25 10:48:51;;;;;;;3.45;0.90;;;23.60;68.10;;;;;;7374624;19;20022;-56
2023/07/25 10:51:19;;;;;;;2.40;0.88;;;23.50;66.70;;;;;;7381891;19;20015;-63
2023/07/25 10:54:08;;;;;;;3.92;1.20;;;22.60;67.40;;;;;;7382090;19;20026;-58
2023/07/25 10:56:40;;;;;;;8.00;3.85;;;22.30;66.70;;;;;;7382154;19;20022;-58
2023/07/25 10:59:07;;;;;;;;;;;22.40;68.80;;;;;;7379877;19;20018;-57
2023/07/25 11:01:54;;;;;;;2.75;0.80;;;22.70;67.80;;;;;;7379879;19;20264;-57
2023/07/25 11:04:31;;;;;;;6.85;1.02;;;22.70;68.10;;;;;;7376727;19;20018;-57
2023/07/25 11:06:58;;;;;;;4.47;0.90;;;22.90;68.40;;;;;;7376355;19;20019;-58
2023/07/25 11:09:26;;;;;;;3.40;0.80;;;23.00;67.90;;;;;;7381299;19;20071;-64
2023/07/25 11:11:54;;;;;;;4.70;1.23;;;23.10;68.30;;;;;;7385723;19;20109;-64
2023/07/25 11:14:20;;;;;;;5.22;0.70;;;22.70;68.90;;;;;;7385508;19;20730;-63
2023/07/25 11:16:49;;;;;;;2.50;0.63;;;23.30;68.60;;;;;;7383713;19;20094;-58
2023/07/25 11:19:16;;;;;;;3.20;0.73;;;23.50;67.20;;;;;;7380139;19;20022;-64
2023/07/25 11:21:44;;;;;;;3.97;1.55;;;24.00;65.60;;;;;;7383292;19;20018;-57
2023/07/25 11:24:12;;;;;;;5.32;1.42;;;24.50;64.80;;;;;;7378113;19;20421;-57
2023/07/25 11:26:39;;;;;;;3.92;0.95;;;24.20;63.80;;;;;;7378591;19;20015;-58
2023/07/25 11:29:07;;;;;;;3.90;0.80;;;23.70;64.90;;;;;;7379130;19;20078;-57
2023/07/25 11:31:36;;;;;;;7.90;1.30;;;23.40;67.30;;;;;;7375498;19;20022;-57
2023/07/25 11:34:09;;;;;;;7.35;5.13;;;22.90;66.40;;;;;;7381242;19;20050;-64
2023/07/25 11:36:38;;;;;;;3.33;0.80;;;23.80;64.90;;;;;;7380170;19;20018;-58
2023/07/25 11:39:04;;;;;;;1.90;0.63;;;23.80;64.80;;;;;;7374061;19;20042;-63
2023/07/25 11:41:33;;;;;;;4.30;1.10;;;24.00;63.80;;;;;;7382106;19;20022;-65
2023/07/25 11:44:10;;;;;;;5.18;0.90;;;24.50;61.90;;;;;;7379252;19;20018;-57
2023/07/25 11:46:42;;;;;;;4.40;1.58;;;25.00;59.70;;;;;;7377859;19;20407;-57
2023/07/25 11:49:11;;;;;;;1.52;0.52;;;25.10;59.90;;;;;;7374103;19;20029;-57
2023/07/25 11:51:38;;;;;;;2.42;0.70;;;24.90;61.20;;;;;;7373456;19;20139;-56
2023/07/25 11:54:06;;;;;;;2.20;0.85;;;25.30;60.90;;;;;;7377664;19;20010;-59
2023/07/25 11:56:33;;;;;;;4.00;1.27;;;26.00;62.10;;;;;;7375741;19;20022;-59
2023/07/25 11:59:01;;;;;;;18.08;16.17;;;26.00;61.40;;;;;;7376951;19;20089;-60
2023/07/25 12:01:29;;;;;;;3.50;1.13;;;25.70;59.60;;;;;;7377291;19;20648;-59
2023/07/25 12:03:56;;;;;;;31.23;28.17;;;24.50;60.90;;;;;;7378209;19;20779;-59
2023/07/25 12:06:33;;;;;;;7.90;6.00;;;23.50;62.70;;;;;;7373185;19;20022;-61
2023/07/25 12:09:00;;;;;;;7.25;5.00;;;22.90;63.20;;;;;;7373571;19;20018;-60
2023/07/25 12:11:27;;;;;;;22.52;18.70;;;22.50;64.40;;;;;;7376260;19;20052;-59
2023/07/25 12:13:57;;;;;;;14.20;11.35;;;22.10;65.50;;;;;;7372841;19;20025;-59
2023/07/25 12:16:37;;;;;;;23.95;21.33;;;21.80;66.50;;;;;;7376426;19;20023;-59
2023/07/25 12:19:11;;;;;;;7.13;4.20;;;21.70;67.70;;;;;;7372896;19;20120;-59
2023/07/25 12:21:40;;;;;;;4.15;1.50;;;21.90;67.80;;;;;;7376456;19;20022;-59
2023/07/25 12:24:08;;;;;;;3.08;0.85;;;21.80;67.90;;;;;;7372082;19;20842;-59
2023/07/25 12:26:46;;;;;;;4.45;1.90;;;21.90;68.50;;;;;;7375490;19;20025;-59
2023/07/25 12:29:18;;;;;;;16.02;13.65;;;22.10;67.80;;;;;;7377878;19;20019;-67
2023/07/25 12:31:44;;;;;;;7.55;3.20;;;22.30;67.50;;;;;;7381061;19;20017;-64
2023/07/25 12:34:12;;;;;;;5.13;1.85;;;22.60;67.10;;;;;;7380117;19;20478;-59
2023/07/25 12:36:38;;;;;;;2.90;0.77;;;22.50;65.10;;;;;;7373151;19;20018;-59
2023/07/25 12:39:05;;;;;;;4.25;2.55;;;23.00;65.50;;;;;;7374290;19;20768;-59
2023/07/25 12:41:32;;;;;;;3.67;0.93;;;23.00;65.20;;;;;;7374295;19;20465;-59
2023/07/25 12:43:58;;;;;;;3.25;0.93;;;23.10;65.10;;;;;;7378705;19;20388;-65
2023/07/25 12:46:25;;;;;;;6.53;1.70;;;23.40;65.50;;;;;;7381621;19;20018;-64